Time;durP1;ratioP1;P1;durP2;ratioP2;P2;SDS_P1;SDS_P2;PMS_P1;PMS_P2;Temp;Humidity;BMP_temperature;BMP_pressure;BME280_temperature;BME280_humidity;BME280_pressure;Samples;Min_cycle;Max_cycle;Signal;HPM_P1;HPM_P2
2023/09/23 00:01:31;;;;;;;9.07;5.40;;;;;;;16.76;100.00;98203.16;5158349;27;20293;-62
2023/09/23 00:03:57;;;;;;;16.15;5.45;;;;;;;16.74;100.00;98199.97;5158001;27;20111;-61
2023/09/23 00:06:24;;;;;;;9.68;5.15;;;;;;;16.79;100.00;98201.47;5158412;27;20051;-60
2023/09/23 00:08:50;;;;;;;7.00;5.38;;;;;;;16.78;100.00;98183.31;5157729;27;20054;-60
2023/09/23 00:11:17;;;;;;;12.50;7.70;;;;;;;16.66;100.00;98207.66;5157750;27;20043;-61
2023/09/23 00:13:43;;;;;;;8.10;5.50;;;;;;;16.58;100.00;98224.84;5157937;27;20060;-61
2023/09/23 00:16:11;;;;;;;10.82;5.63;;;;;;;16.64;100.00;98220.38;5158058;27;20142;-62
2023/09/23 00:18:38;;;;;;;13.48;6.10;;;;;;;16.65;100.00;98210.84;5158137;27;20070;-64
2023/09/23 00:21:05;;;;;;;9.18;5.95;;;;;;;16.78;100.00;98246.97;5157774;27;20386;-63
2023/09/23 00:23:32;;;;;;;9.50;5.57;;;;;;;16.84;100.00;98173.31;5158009;27;20043;-60
2023/09/23 00:25:59;;;;;;;13.23;7.28;;;;;;;16.77;100.00;98198.38;5157940;27;20061;-61
2023/09/23 00:28:30;;;;;;;10.88;8.20;;;;;;;16.78;100.00;98197.16;5158037;27;20051;-62
2023/09/23 00:31:03;;;;;;;14.07;5.18;;;;;;;16.84;100.00;98163.00;5157537;27;20047;-61
2023/09/23 00:33:30;;;;;;;13.52;6.03;;;;;;;16.86;100.00;98152.28;5157994;27;20323;-62
2023/09/23 00:35:56;;;;;;;11.90;5.38;;;;;;;16.82;100.00;98179.25;5161145;27;20066;-64
2023/09/23 00:38:22;;;;;;;12.18;5.75;;;;;;;17.05;100.00;98116.63;5161165;27;20051;-63
2023/09/23 00:40:48;;;;;;;12.88;6.13;;;;;;;17.30;100.00;98072.47;5161407;27;20050;-62
2023/09/23 00:43:17;;;;;;;11.00;7.40;;;;;;;17.13;100.00;98063.41;5161342;27;20143;-62
2023/09/23 00:45:47;;;;;;;11.05;5.78;;;;;;;17.22;100.00;98081.38;5160982;27;20419;-60
2023/09/23 00:48:14;;;;;;;12.18;4.93;;;;;;;17.08;100.00;98029.94;5161142;27;20047;-61
2023/09/23 00:50:41;;;;;;;12.88;8.00;;;;;;;17.13;100.00;98032.19;5161365;27;20142;-61
2023/09/23 00:53:07;;;;;;;13.48;5.88;;;;;;;17.05;100.00;98067.56;5160967;27;20420;-62
2023/09/23 00:55:40;;;;;;;9.98;5.90;;;;;;;17.30;100.00;98019.06;5161335;27;20051;-63
2023/09/23 00:58:07;;;;;;;7.00;5.47;;;;;;;17.14;100.00;98028.19;5160896;27;20448;-61
2023/09/23 01:00:37;;;;;;;15.63;7.75;;;;;;;17.08;100.00;98055.63;5161334;27;20289;-61
2023/09/23 01:03:03;;;;;;;13.63;5.85;;;;;;;17.07;100.00;98062.38;5161067;27;20061;-60
2023/09/23 01:05:29;;;;;;;10.32;5.65;;;;;;;17.07;100.00;98058.84;5160705;27;20058;-64
2023/09/23 01:07:56;;;;;;;10.27;5.75;;;;;;;17.05;100.00;98039.09;5161038;27;20057;-64
2023/09/23 01:10:22;;;;;;;13.18;5.57;;;;;;;17.29;100.00;98051.50;5160754;27;20061;-62
2023/09/23 01:12:49;;;;;;;15.20;7.35;;;;;;;17.32;100.00;98020.16;5160968;27;20107;-62
2023/09/23 01:15:18;;;;;;;13.75;5.90;;;;;;;17.07;100.00;98020.84;5160627;27;20366;-60
2023/09/23 01:17:45;;;;;;;9.43;5.80;;;;;;;17.06;100.00;98032.34;5160981;27;20047;-60
2023/09/23 01:20:13;;;;;;;8.20;5.57;;;;;;;17.32;100.00;98044.31;5160424;27;20408;-61
2023/09/23 01:22:40;;;;;;;7.65;5.20;;;;;;;17.25;100.00;97995.44;5160953;27;20086;-60
2023/09/23 01:25:07;;;;;;;16.00;5.53;;;;;;;17.14;100.00;98020.66;5160407;27;20454;-60
2023/09/23 01:27:34;;;;;;;7.40;5.28;;;;;;;17.42;100.00;97982.28;5160824;27;20088;-62
2023/09/23 01:30:03;;;;;;;12.45;5.63;;;;;;;17.38;100.00;97976.09;5160273;27;20057;-63
2023/09/23 01:32:45;;;;;;;9.55;5.53;;;;;;;17.25;100.00;98002.97;5160560;27;20058;-62
2023/09/23 01:35:11;;;;;;;8.82;5.90;;;;;;;17.53;100.00;97990.31;5160477;27;20103;-63
2023/09/23 01:37:37;;;;;;;11.70;6.25;;;;;;;17.04;100.00;97998.78;5160373;27;20050;-62
2023/09/23 01:40:06;;;;;;;8.95;5.75;;;;;;;17.07;100.00;98001.47;5160592;27;20051;-63
2023/09/23 01:42:33;;;;;;;9.85;5.97;;;;;;;17.23;100.00;98024.78;5160262;27;20042;-62
2023/09/23 01:44:58;;;;;;;7.28;5.40;;;;;;;17.58;100.00;97976.69;5160154;27;20119;-62
2023/09/23 01:47:25;;;;;;;14.63;5.97;;;;;;;17.32;100.00;97980.59;5159372;27;20054;-62
2023/09/23 01:49:51;;;;;;;10.45;7.30;;;;;;;17.57;100.00;97975.13;5160503;27;20083;-64
2023/09/23 01:52:17;;;;;;;17.98;6.15;;;;;;;17.45;100.00;97972.31;5159975;27;20046;-61
2023/09/23 01:54:44;;;;;;;6.60;5.90;;;;;;;17.43;100.00;97983.88;5160390;27;20050;-61
2023/09/23 01:57:16;;;;;;;8.48;7.05;;;;;;;17.42;100.00;97977.53;5160164;27;20070;-63
2023/09/23 01:59:42;;;;;;;13.50;5.82;;;;;;;17.23;100.00;97997.06;5160108;27;20046;-62
2023/09/23 02:02:09;;;;;;;12.50;7.45;;;;;;;17.48;100.00;98004.69;5160212;27;20089;-62
2023/09/23 02:04:37;;;;;;;11.43;5.82;;;;;;;17.30;100.00;97994.91;5159966;27;20089;-63
2023/09/23 02:07:03;;;;;;;13.07;7.25;;;;;;;17.47;100.00;98008.69;5160156;27;20050;-60
2023/09/23 02:09:30;;;;;;;7.75;5.18;;;;;;;17.17;100.00;97988.53;5159783;27;20047;-60
2023/09/23 02:11:56;;;;;;;13.73;5.88;;;;;;;17.55;100.00;97983.09;5160012;27;20054;-62
2023/09/23 02:14:23;;;;;;;10.02;7.22;;;;;;;17.33;100.00;97982.94;5159615;27;20053;-61
2023/09/23 02:16:50;;;;;;;11.63;5.32;;;;;;;16.98;100.00;98012.38;5159992;27;20099;-62
2023/09/23 02:19:16;;;;;;;6.18;5.55;;;;;;;17.41;100.00;98023.06;5159551;27;20188;-61
2023/09/23 02:21:42;;;;;;;10.88;5.25;;;;;;;17.26;100.00;97999.78;5160006;27;20323;-63
2023/09/23 02:24:08;;;;;;;9.63;5.78;;;;;;;17.17;100.00;98019.78;5159724;27;20082;-63
2023/09/23 02:26:34;;;;;;;12.43;7.38;;;;;;;17.40;100.00;97990.28;5159663;27;20141;-60
2023/09/23 02:29:00;;;;;;;13.98;5.75;;;;;;;17.34;100.00;98001.13;5159341;27;20056;-61
2023/09/23 02:31:26;;;;;;;11.13;7.47;;;;;;;17.33;100.00;97988.50;5159562;27;20115;-62
2023/09/23 02:33:52;;;;;;;13.60;5.78;;;;;;;17.25;100.00;97995.44;5159610;27;20061;-61
2023/09/23 02:36:18;;;;;;;11.23;7.80;;;;;;;17.26;100.00;98016.41;5159271;27;20055;-62
2023/09/23 02:38:44;;;;;;;7.45;5.32;;;;;;;16.94;100.00;98067.84;5159541;27;20142;-62
2023/09/23 02:41:10;;;;;;;14.27;5.40;;;;;;;17.19;100.00;98019.34;5159273;27;20145;-63
2023/09/23 02:43:37;;;;;;;10.25;5.95;;;;;;;17.10;100.00;98031.06;5159498;27;20112;-62
2023/09/23 02:46:03;;;;;;;9.55;6.20;;;;;;;17.05;100.00;98061.25;5159057;27;20050;-64
2023/09/23 02:48:29;;;;;;;10.35;5.32;;;;;;;16.90;100.00;98092.06;5159551;27;20062;-64
2023/09/23 02:50:58;;;;;;;6.32;5.28;;;;;;;17.11;100.00;98063.06;5159001;27;20061;-64
2023/09/23 02:53:24;;;;;;;13.07;6.60;;;;;;;17.33;100.00;98029.28;5158959;27;20416;-64
2023/09/23 02:56:00;;;;;;;9.23;6.07;;;;;;;16.97;100.00;98046.81;5159167;27;20212;-62
2023/09/23 02:58:26;;;;;;;10.25;5.80;;;;;;;16.92;100.00;98081.34;5158875;27;20085;-64
2023/09/23 03:00:57;;;;;;;9.77;5.68;;;;;;;17.23;100.00;98044.16;5159183;27;20155;-64
2023/09/23 03:03:23;;;;;;;11.27;5.90;;;;;;;17.15;100.00;98030.50;5158965;27;20047;-63
2023/09/23 03:05:54;;;;;;;9.95;5.70;;;;;;;16.93;100.00;98071.84;5159157;27;20057;-63
2023/09/23 03:08:22;;;;;;;9.45;5.85;;;;;;;17.14;100.00;98053.88;5158691;27;20423;-64
2023/09/23 03:10:49;;;;;;;21.27;5.65;;;;;;;17.07;100.00;98039.47;5159161;27;20050;-64
2023/09/23 03:13:17;;;;;;;10.88;5.60;;;;;;;17.26;100.00;98016.41;5158769;27;20047;-61
2023/09/23 03:15:48;;;;;;;9.02;6.03;;;;;;;17.02;100.00;98046.28;5159034;27;20078;-63
2023/09/23 03:18:14;;;;;;;8.13;5.80;;;;;;;17.24;100.00;98040.97;5158912;27;20069;-61
2023/09/23 03:20:40;;;;;;;11.88;7.65;;;;;;;17.05;100.00;98083.41;5158772;27;20065;-62
2023/09/23 03:23:10;;;;;;;9.68;5.75;;;;;;;16.96;100.00;98099.84;5158706;27;20050;-62
2023/09/23 03:25:42;;;;;;;8.75;7.00;;;;;;;17.05;100.00;98100.03;5158375;27;20435;-63
2023/09/23 03:28:08;;;;;;;7.63;5.93;;;;;;;17.10;100.00;98107.81;5158779;27;20146;-60
2023/09/23 03:30:35;;;;;;;10.45;5.93;;;;;;;17.08;100.00;98086.09;5158458;27;20046;-64
2023/09/23 03:33:02;;;;;;;12.27;6.18;;;;;;;16.85;100.00;98144.41;5158710;27;20427;-63
2023/09/23 03:35:28;;;;;;;11.05;7.43;;;;;;;16.63;100.00;98142.13;5158364;27;20082;-62
2023/09/23 03:37:54;;;;;;;11.48;5.97;;;;;;;16.97;100.00;98129.09;5158781;27;20093;-64
2023/09/23 03:40:21;;;;;;;14.18;8.15;;;;;;;16.71;100.00;98160.09;5158168;27;20050;-64
2023/09/23 03:42:48;;;;;;;11.25;7.93;;;;;;;16.68;100.00;98187.84;5158501;27;20134;-64
2023/09/23 03:45:15;;;;;;;9.40;5.78;;;;;;;16.91;100.00;98179.44;5158504;27;20319;-63
2023/09/23 03:47:41;;;;;;;12.98;6.20;;;;;;;17.01;100.00;98151.94;5158455;27;20331;-61
2023/09/23 03:50:08;;;;;;;8.25;5.65;;;;;;;16.93;100.00;98154.09;5158534;27;20051;-61
2023/09/23 03:52:34;;;;;;;12.40;6.15;;;;;;;16.80;100.00;98159.56;5158354;27;20043;-62
2023/09/23 03:55:00;;;;;;;8.10;6.03;;;;;;;16.61;100.00;98210.16;5158417;27;20046;-60
2023/09/23 03:57:27;;;;;;;7.43;5.57;;;;;;;16.85;100.00;98199.75;5158212;27;20073;-63
2023/09/23 03:59:53;;;;;;;10.18;7.95;;;;;;;17.01;100.00;98176.88;5158431;27;20096;-62
2023/09/23 04:02:18;;;;;;;7.63;5.95;;;;;;;17.04;100.00;98162.94;5158003;27;20423;-63
2023/09/23 04:04:49;;;;;;;12.70;5.95;;;;;;;16.57;100.00;98228.81;5158347;27;20086;-64
2023/09/23 04:07:16;;;;;;;11.27;8.05;;;;;;;17.03;100.00;98266.59;5157898;27;20099;-62
2023/09/23 04:09:42;;;;;;;10.68;7.82;;;;;;;16.66;100.00;98242.84;5162131;27;20438;-61
2023/09/23 04:12:10;;;;;;;6.90;5.88;;;;;;;16.56;100.00;98272.31;5164760;27;20408;-64
2023/09/23 04:14:37;;;;;;;10.27;5.97;;;;;;;16.76;100.00;98318.59;5164917;27;20122;-64
2023/09/23 04:17:03;;;;;;;7.80;5.95;;;;;;;16.96;100.00;98219.69;5164771;27;20050;-63
2023/09/23 04:19:29;;;;;;;11.43;5.80;;;;;;;16.90;100.00;98236.03;5164887;27;20047;-61
2023/09/23 04:21:56;;;;;;;11.32;5.80;;;;;;;16.97;100.00;98198.31;5165076;27;20316;-60
2023/09/23 04:24:22;;;;;;;12.55;7.50;;;;;;;16.92;100.00;98211.44;5164506;27;20055;-63
2023/09/23 04:26:49;;;;;;;10.77;6.30;;;;;;;16.95;100.00;98201.50;5164940;27;20054;-64
2023/09/23 04:29:19;;;;;;;13.43;6.03;;;;;;;17.15;100.00;98220.81;5164498;27;20105;-63
2023/09/23 04:31:46;;;;;;;7.72;5.82;;;;;;;17.22;100.00;98134.78;5164960;27;20198;-61
2023/09/23 04:34:13;;;;;;;10.57;6.00;;;;;;;17.32;100.00;98183.59;5164345;27;20057;-62
2023/09/23 04:36:39;;;;;;;18.77;6.18;;;;;;;17.38;100.00;98151.38;5164900;27;20286;-62
2023/09/23 04:39:06;;;;;;;10.50;6.10;;;;;;;17.36;100.00;98162.13;5164460;27;20096;-60
2023/09/23 04:41:32;;;;;;;12.02;7.93;;;;;;;17.30;100.00;98130.63;5185303;27;20042;-62
2023/09/23 04:43:58;;;;;;;7.63;5.25;;;;;;;17.37;100.00;98141.53;5185607;27;20198;-63
2023/09/23 04:46:24;;;;;;;12.05;5.82;;;;;;;17.74;100.00;98113.63;5185377;27;20050;-60
2023/09/23 04:48:51;;;;;;;10.90;7.88;;;;;;;17.55;100.00;98091.16;5185339;27;20046;-64
2023/09/23 04:51:17;;;;;;;12.30;5.72;;;;;;;17.70;100.00;98108.19;5185072;27;20092;-61
2023/09/23 04:53:43;;;;;;;11.10;5.90;;;;;;;17.68;100.00;98085.69;5185575;27;20050;-63
2023/09/23 04:56:10;;;;;;;12.43;5.63;;;;;;;17.47;100.00;98131.38;5184921;27;20178;-60
2023/09/23 04:58:36;;;;;;;10.60;6.63;;;;;;;17.77;100.00;98108.03;5185433;27;20423;-61
2023/09/23 05:01:03;;;;;;;10.13;6.10;;;;;;;17.74;100.00;98106.09;5185051;27;20132;-63
2023/09/23 05:03:29;;;;;;;14.88;5.47;;;;;;;17.72;100.00;98124.38;5185423;27;20046;-63
2023/09/23 05:05:56;;;;;;;9.50;6.07;;;;;;;17.75;100.00;98095.78;5184938;27;20049;-64
2023/09/23 05:08:22;;;;;;;12.35;5.43;;;;;;;17.52;100.00;98125.28;5184962;27;20042;-63
2023/09/23 05:10:49;;;;;;;7.07;5.95;;;;;;;17.76;100.00;98092.63;5184933;27;20057;-63
2023/09/23 05:13:17;;;;;;;9.82;8.00;;;;;;;17.27;100.00;98139.03;5184877;27;20053;-61
2023/09/23 05:15:43;;;;;;;12.95;6.30;;;;;;;17.66;100.00;98171.28;5185139;27;20056;-60
2023/09/23 05:18:09;;;;;;;9.77;5.85;;;;;;;17.44;100.00;98171.03;5185008;27;20198;-62
2023/09/23 05:20:35;;;;;;;9.52;6.22;;;;;;;17.50;100.00;98248.88;5183458;27;20078;-64
2023/09/23 05:23:05;;;;;;;15.88;6.10;;;;;;;17.61;100.00;98249.38;5181357;27;20483;-63
2023/09/23 05:25:31;;;;;;;7.40;5.60;;;;;;;17.76;100.00;98174.94;5181645;27;20046;-64
2023/09/23 05:27:57;;;;;;;10.45;8.00;;;;;;;17.86;100.00;98187.78;5181429;27;20143;-60
2023/09/23 05:30:26;;;;;;;10.10;6.20;;;;;;;17.66;100.00;98196.22;5181712;27;20050;-61
2023/09/23 05:32:52;;;;;;;10.80;6.25;;;;;;;17.35;100.00;98271.38;5181128;27;20050;-62
2023/09/23 05:35:18;;;;;;;9.65;5.95;;;;;;;17.56;100.00;98278.41;5180532;27;20081;-61
2023/09/23 05:37:44;;;;;;;10.43;6.07;;;;;;;17.22;100.00;98336.97;5181036;27;20145;-61
2023/09/23 05:40:22;;;;;;;10.30;5.57;;;;;;;17.54;100.00;98289.13;5181089;27;20358;-62
2023/09/23 05:42:48;;;;;;;14.35;6.28;;;;;;;17.86;100.00;98194.13;5180800;27;20423;-60
2023/09/23 05:45:15;;;;;;;14.68;6.45;;;;;;;17.94;100.00;98178.06;5180894;27;20061;-62
2023/09/23 05:47:41;;;;;;;15.48;6.13;;;;;;;17.79;100.00;98205.41;5181071;27;20056;-63
2023/09/23 05:50:09;;;;;;;8.52;5.72;;;;;;;17.91;100.00;98219.75;5180733;27;20076;-62
2023/09/23 05:52:35;;;;;;;12.15;6.30;;;;;;;17.88;100.00;98218.63;5180793;27;20052;-64
2023/09/23 05:55:01;;;;;;;16.67;7.07;;;;;;;18.02;100.00;98267.38;5180624;27;20141;-61
2023/09/23 05:57:28;;;;;;;13.05;8.55;;;;;;;17.88;100.00;98227.72;5181208;27;20051;-62
2023/09/23 05:59:54;;;;;;;15.45;6.60;;;;;;;17.96;100.00;98221.97;5180677;27;20057;-62
2023/09/23 06:02:21;;;;;;;14.95;8.45;;;;;;;17.98;100.00;98227.88;5180894;27;20042;-60
2023/09/23 06:04:47;;;;;;;12.52;6.10;;;;;;;17.99;100.00;98285.66;5180692;27;20065;-63
2023/09/23 06:07:13;;;;;;;13.93;5.80;;;;;;;18.04;100.00;98240.75;5180823;27;20050;-63
2023/09/23 06:09:43;;;;;;;17.98;5.85;;;;;;;18.03;100.00;98250.31;5180816;27;20115;-62
2023/09/23 06:12:09;;;;;;;12.60;6.55;;;;;;;18.07;100.00;98220.47;5180661;27;20068;-63
2023/09/23 06:14:35;;;;;;;14.85;8.98;;;;;;;17.86;100.00;98305.03;5180655;27;20487;-62
2023/09/23 06:17:01;;;;;;;14.30;5.97;;;;;;;17.79;100.00;98346.78;5180552;27;20049;-64
2023/09/23 06:19:27;;;;;;;7.80;5.97;;;;;;;18.00;100.00;98298.31;5180900;27;20046;-61
2023/09/23 06:21:54;;;;;;;18.02;6.30;;;;;;;18.01;100.00;98299.09;5180390;27;20323;-60
2023/09/23 06:24:20;;;;;;;13.02;6.05;;;;;;;18.48;100.00;98237.56;5180800;27;20336;-61
2023/09/23 06:26:46;;;;;;;16.33;7.95;;;;;;;18.14;100.00;98213.19;5180565;27;20137;-64
2023/09/23 06:29:14;;;;;;;12.80;6.22;;;;;;;18.65;100.00;98202.94;5180746;27;20315;-62
2023/09/23 06:31:40;;;;;;;12.05;6.70;;;;;;;18.64;100.00;98173.66;5179573;27;20061;-61
2023/09/23 06:34:06;;;;;;;14.65;6.72;;;;;;;18.44;100.00;98181.41;5180166;27;20144;-60
2023/09/23 06:36:32;;;;;;;11.88;6.28;;;;;;;18.54;100.00;98197.72;5180114;27;20057;-63
2023/09/23 06:38:58;;;;;;;12.15;5.78;;;;;;;18.40;100.00;98183.50;5180288;27;20375;-63
2023/09/23 06:41:24;;;;;;;10.45;6.25;;;;;;;18.67;100.00;98197.75;5180289;27;20137;-63
2023/09/23 06:43:51;;;;;;;11.98;6.05;;;;;;;18.63;100.00;98194.31;5180161;27;20050;-60
2023/09/23 06:46:17;;;;;;;9.93;5.82;;;;;;;18.72;100.00;98118.72;5180320;27;20068;-63
2023/09/23 06:48:44;;;;;;;12.82;5.72;;;;;;;18.75;100.00;98134.47;5179969;27;20077;-64
2023/09/23 06:51:10;;;;;;;6.60;5.47;;;;;;;19.23;100.00;98071.41;5180069;27;20134;-64
2023/09/23 06:53:36;;;;;;;9.30;6.10;;;;;;;19.13;100.00;98075.34;5179706;27;20444;-61
2023/09/23 06:56:03;;;;;;;14.00;6.43;;;;;;;19.18;100.00;98078.28;5179837;27;20052;-63
2023/09/23 06:58:29;;;;;;;12.40;6.65;;;;;;;19.35;100.00;98047.56;5179698;27;20380;-64
2023/09/23 07:00:55;;;;;;;12.05;6.13;;;;;;;19.32;100.00;98092.94;5179677;27;20046;-64
2023/09/23 07:03:21;;;;;;;15.43;8.07;;;;;;;18.94;100.00;98143.81;5180017;27;20114;-61
2023/09/23 07:05:48;;;;;;;9.55;5.97;;;;;;;18.88;100.00;98171.34;5179685;27;20062;-64
2023/09/23 07:08:14;;;;;;;14.00;6.57;;;;;;;19.28;100.00;98156.97;5179924;27;20133;-65
2023/09/23 07:10:41;;;;;;;9.55;6.28;;;;;;;19.34;100.00;98101.59;5179606;27;20490;-64
2023/09/23 07:13:08;;;;;;;19.10;6.53;;;;;;;18.57;100.00;98179.41;5179943;27;20323;-61
2023/09/23 07:15:36;;;;;;;10.40;6.20;;;;;;;18.94;100.00;98219.56;5179332;27;20049;-65
2023/09/23 07:18:02;;;;;;;14.13;8.38;;;;;;;18.92;100.00;98210.09;5179907;27;20046;-62
2023/09/23 07:20:28;;;;;;;11.70;6.75;;;;;;;18.70;100.00;98246.84;5179462;27;20050;-62
2023/09/23 07:22:54;;;;;;;17.73;6.82;;;;;;;18.88;100.00;98304.63;5179798;27;20134;-64
2023/09/23 07:25:20;;;;;;;10.75;6.05;;;;;;;18.87;100.00;98277.31;5179376;27;20213;-63
2023/09/23 07:27:46;;;;;;;11.95;7.78;;;;;;;18.98;100.00;98238.88;5179663;27;20050;-63
2023/09/23 07:30:13;;;;;;;25.15;6.65;;;;;;;18.99;100.00;98218.22;5179423;27;20057;-60
2023/09/23 07:32:39;;;;;;;26.65;6.57;;;;;;;19.02;100.00;98295.88;5179531;27;20081;-63
2023/09/23 07:35:06;;;;;;;12.68;6.57;;;;;;;18.79;100.00;98296.97;5179171;27;20050;-61
2023/09/23 07:37:32;;;;;;;14.68;8.32;;;;;;;18.79;100.00;98330.28;5179381;27;20193;-63
2023/09/23 07:39:58;;;;;;;10.50;5.68;;;;;;;18.86;100.00;98304.31;5179522;27;20428;-64
2023/09/23 07:42:24;;;;;;;15.73;8.52;;;;;;;18.98;100.00;98286.09;5179277;27;20069;-63
2023/09/23 07:44:50;;;;;;;8.48;5.85;;;;;;;19.04;100.00;98262.88;5178221;27;20062;-64
2023/09/23 07:47:16;;;;;;;15.98;5.65;;;;;;;18.84;100.00;98312.31;5179082;27;20171;-64
2023/09/23 07:49:42;;;;;;;17.98;5.78;;;;;;;19.27;100.00;98239.56;5179380;27;20078;-64
2023/09/23 07:52:08;;;;;;;14.32;6.10;;;;;;;19.17;100.00;98199.00;5178886;27;20118;-63
2023/09/23 07:54:34;;;;;;;10.95;5.82;;;;;;;19.34;100.00;98198.88;5179094;27;20050;-62
2023/09/23 07:57:00;;;;;;;11.25;5.90;;;;;;;19.15;100.00;98222.88;5178748;27;20159;-61
2023/09/23 07:59:26;;;;;;;11.60;6.45;;;;;;;19.30;100.00;98274.00;5178871;27;20140;-60
2023/09/23 08:01:52;;;;;;;10.98;6.40;;;;;;;19.50;100.00;98202.28;5178829;27;20137;-60
2023/09/23 08:04:18;;;;;;;12.73;8.70;;;;;;;19.40;100.00;98244.31;5178800;27;20046;-64
2023/09/23 08:06:44;;;;;;;10.50;5.72;;;;;;;19.47;100.00;98232.97;5179101;27;20046;-65
2023/09/23 08:09:10;;;;;;;26.60;6.45;;;;;;;19.30;100.00;98289.91;5178728;27;20050;-62
2023/09/23 08:11:36;;;;;;;10.98;6.18;;;;;;;19.54;100.00;98216.06;5178963;27;20101;-64
2023/09/23 08:14:03;;;;;;;12.60;6.35;;;;;;;19.47;100.00;98188.50;5178835;27;20050;-63
2023/09/23 08:16:29;;;;;;;8.88;5.50;;;;;;;19.52;100.00;98218.50;5179043;27;20153;-64
2023/09/23 08:18:55;;;;;;;11.63;6.53;;;;;;;19.46;100.00;98212.75;5178752;27;20073;-64
2023/09/23 08:21:21;;;;;;;19.60;8.73;;;;;;;19.37;100.00;98234.09;5179078;27;20426;-64
2023/09/23 08:23:46;;;;;;;10.70;6.10;;;;;;;19.37;100.00;98270.22;5178498;27;20474;-63
2023/09/23 08:26:12;;;;;;;9.57;5.75;;;;;;;19.31;100.00;98283.13;5178788;27;20140;-62
2023/09/23 08:28:39;;;;;;;10.68;6.28;;;;;;;19.70;100.00;98242.97;5178787;27;20061;-60
2023/09/23 08:31:05;;;;;;;9.02;5.75;;;;;;;20.03;100.00;98140.47;5178717;27;20050;-63
2023/09/23 08:33:32;;;;;;;13.98;6.07;;;;;;;20.33;100.00;98060.25;5178654;27;20137;-64
2023/09/23 08:35:58;;;;;;;16.48;8.90;;;;;;;20.41;100.00;98097.69;5178008;27;20336;-64
2023/09/23 08:38:24;;;;;;;12.05;5.75;;;;;;;20.71;100.00;98032.09;5178692;27;20061;-62
2023/09/23 08:40:52;;;;;;;13.70;8.75;;;;;;;20.28;100.00;98081.09;5178372;27;20046;-63
2023/09/23 08:43:23;;;;;;;9.60;6.53;;;;;;;20.17;100.00;98081.50;5178645;27;20268;-64
2023/09/23 08:45:50;;;;;;;13.15;7.18;;;;;;;20.76;100.00;98061.34;5178206;27;20055;-64
2023/09/23 08:48:18;;;;;;;9.77;5.90;;;;;;;20.74;100.00;98061.03;5178548;27;20141;-61
2023/09/23 08:50:46;;;;;;;15.60;6.07;;;;;;;20.05;100.00;98098.28;5178181;27;20050;-61
2023/09/23 08:53:14;;;;;;;9.30;5.88;;;;;;;20.04;100.00;98158.72;5178531;27;20122;-61
2023/09/23 08:55:41;;;;;;;13.80;6.63;;;;;;;20.97;100.00;98082.75;5179743;27;20046;-64
2023/09/23 08:58:07;;;;;;;10.27;6.18;;;;;;;19.95;100.00;98156.63;5181790;27;20145;-62
2023/09/23 09:00:33;;;;;;;12.07;5.68;;;;;;;20.67;100.00;98115.00;5181999;27;20050;-61
2023/09/23 09:03:00;;;;;;;10.05;6.18;;;;;;;20.30;100.00;98098.13;5181911;27;20058;-61
2023/09/23 09:05:38;;;;;;;9.00;6.30;;;;;;;20.08;100.00;98144.66;5181801;27;20140;-63
2023/09/23 09:08:05;;;;;;;14.98;6.38;;;;;;;20.32;100.00;98167.22;5181550;27;20046;-64
2023/09/23 09:10:31;;;;;;;11.65;6.82;;;;;;;20.67;100.00;98131.72;5181812;27;20042;-63
2023/09/23 09:12:57;;;;;;;14.75;6.15;;;;;;;20.80;100.00;98073.91;5181484;27;20061;-62
2023/09/23 09:15:23;;;;;;;11.02;6.03;;;;;;;20.67;100.00;98115.78;5181807;27;20195;-61
2023/09/23 09:17:49;;;;;;;17.52;9.07;;;;;;;20.55;100.00;98138.16;5181281;27;20415;-64
2023/09/23 09:20:15;;;;;;;14.50;6.88;;;;;;;20.45;100.00;98159.56;5181229;27;20456;-61
2023/09/23 09:22:44;;;;;;;15.55;6.38;;;;;;;20.57;100.00;98167.09;5181427;27;20091;-62
2023/09/23 09:25:12;;;;;;;11.88;6.75;;;;;;;20.78;100.00;98128.50;5181412;27;20050;-61
2023/09/23 09:27:38;;;;;;;18.80;6.82;;;;;;;20.59;100.00;98194.47;5181603;27;20387;-64
2023/09/23 09:30:11;;;;;;;9.77;6.82;;;;;;;20.99;100.00;98087.84;5181197;27;20082;-63
2023/09/23 09:32:41;;;;;;;13.75;7.82;;;;;;;21.14;100.00;98100.72;5181459;27;20133;-64
2023/09/23 09:35:11;;;;;;;13.45;7.07;;;;;;;20.73;100.00;98129.88;5181019;27;20056;-62
2023/09/23 09:37:41;;;;;;;9.05;6.55;;;;;;;20.50;100.00;98178.47;5181550;27;20057;-64
2023/09/23 09:40:12;;;;;;;11.95;6.13;;;;;;;20.54;100.00;98183.94;5181024;27;20133;-65
2023/09/23 09:42:40;;;;;;;14.55;7.03;;;;;;;20.25;100.00;98242.63;5181562;27;20129;-61
2023/09/23 09:45:10;;;;;;;13.98;6.47;;;;;;;20.58;100.00;98248.63;5180986;27;20060;-63
2023/09/23 09:47:38;;;;;;;17.25;6.28;;;;;;;20.90;100.00;98231.47;5181106;27;20046;-62
2023/09/23 09:50:05;;;;;;;10.55;6.95;;;;;;;20.55;100.00;98250.28;5181188;27;20092;-64
2023/09/23 09:52:32;;;;;;;11.75;6.45;;;;;;;20.28;100.00;98302.97;5180857;27;20081;-62
2023/09/23 09:55:00;;;;;;;15.13;6.90;;;;;;;20.51;100.00;98338.75;5181161;27;20141;-65
2023/09/23 09:57:29;;;;;;;14.07;7.22;;;;;;;20.32;100.00;98362.06;5180996;27;20299;-64
2023/09/23 09:59:58;;;;;;;10.80;7.13;;;;;;;20.27;100.00;98332.03;5181184;27;20424;-64
2023/09/23 10:02:24;;;;;;;13.20;7.30;;;;;;;20.70;100.00;98306.25;5180766;27;20385;-64
2023/09/23 10:04:51;;;;;;;14.32;9.77;;;;;;;20.19;100.00;98424.13;5181112;27;20051;-64
2023/09/23 10:07:17;;;;;;;11.55;7.18;;;;;;;20.45;100.00;98435.94;5179598;27;20376;-63
2023/09/23 10:09:53;;;;;;;16.55;8.18;;;;;;;21.03;100.00;98298.25;5180949;27;20047;-62
2023/09/23 10:12:24;;;;;;;14.00;7.55;;;;;;;20.74;100.00;98226.13;5180769;27;20289;-62
2023/09/23 10:14:55;;;;;;;15.93;7.22;;;;;;;20.73;100.00;98279.50;5180362;27;20187;-63
2023/09/23 10:17:27;;;;;;;16.88;7.43;;;;;;;20.36;100.00;98383.00;5180471;27;20050;-65
2023/09/23 10:19:55;;;;;;;11.80;7.90;;;;;;;20.45;100.00;98402.53;5180473;27;20110;-62
2023/09/23 10:22:23;;;;;;;11.68;6.97;;;;;;;20.50;100.00;98314.91;5180527;27;20046;-62
2023/09/23 10:24:59;;;;;;;10.88;6.78;;;;;;;20.66;100.00;98330.69;5180411;27;20058;-63
2023/09/23 10:27:25;;;;;;;20.60;7.03;;;;;;;20.47;100.00;98374.28;5180423;27;20391;-63
2023/09/23 10:29:51;;;;;;;13.30;6.85;;;;;;;20.51;100.00;98396.44;5180312;27;20097;-62
2023/09/23 10:32:18;;;;;;;11.43;7.80;;;;;;;20.36;100.00;98357.16;5180771;27;20140;-61
2023/09/23 10:34:48;;;;;;;14.77;7.80;;;;;;;20.33;100.00;98447.13;5180173;27;20146;-64
2023/09/23 10:37:24;;;;;;;14.30;7.30;;;;;;;20.37;100.00;98453.38;5180341;27;20091;-62
2023/09/23 10:39:49;;;;;;;24.48;8.73;;;;;;;20.77;100.00;98436.13;5180169;27;20050;-63
2023/09/23 10:42:15;;;;;;;9.80;7.03;;;;;;;20.38;100.00;98469.59;5180215;27;20088;-63
2023/09/23 10:44:41;;;;;;;16.90;7.97;;;;;;;20.59;100.00;98493.22;5180431;27;20046;-64
2023/09/23 10:47:08;;;;;;;13.20;7.28;;;;;;;20.78;100.00;98435.66;5180100;27;20042;-65
2023/09/23 10:49:35;;;;;;;16.98;6.68;;;;;;;20.70;100.00;98391.81;5180441;27;20372;-63
2023/09/23 10:52:01;;;;;;;17.95;8.55;;;;;;;20.74;100.00;98451.72;5179979;27;20419;-62
2023/09/23 10:54:27;;;;;;;11.90;6.70;;;;;;;20.98;100.00;98362.13;5180304;27;20493;-64
2023/09/23 10:56:53;;;;;;;14.18;6.72;;;;;;;21.23;100.00;98364.00;5179546;27;20312;-61
2023/09/23 10:59:20;;;;;;;15.40;7.70;;;;;;;21.55;100.00;98240.06;5180239;27;20049;-62
2023/09/23 11:01:46;;;;;;;14.38;7.75;;;;;;;21.30;100.00;98255.00;5179814;27;20054;-62
2023/09/23 11:04:12;;;;;;;16.17;8.15;;;;;;;21.98;100.00;98133.00;5179762;27;20092;-61
2023/09/23 11:06:38;;;;;;;15.27;7.63;;;;;;;21.78;100.00;98132.69;5179869;27;20499;-65
2023/09/23 11:09:05;;;;;;;14.90;7.88;;;;;;;21.57;100.00;98195.78;5179618;27;20466;-64
2023/09/23 11:11:34;;;;;;;12.60;7.30;;;;;;;21.60;100.00;98131.47;5179887;27;20057;-65
2023/09/23 11:13:59;;;;;;;18.55;7.43;;;;;;;21.67;100.00;98188.19;5179587;27;20057;-64
2023/09/23 11:16:25;;;;;;;13.25;7.75;;;;;;;21.78;100.00;98157.81;5179822;27;20050;-63
2023/09/23 11:18:52;;;;;;;14.45;6.75;;;;;;;21.93;100.00;98116.13;5179390;27;20117;-62